Wyoming, Delaware
Current Conditions -  °F | °C
As of 4:58 PM on Friday 24 Oct 2014 (Local Time) from KDOV Reporting Station
Clear Clear  
Wind Chill: 67°   Ceiling: Unl
Heat Index: 67°   Visibility: 10mi
Dew Point: 46°   Wind: 13mph
Humidity: 47%   Direction: 290°WNW
Pressure: 29.82"   Gusts: NA
Location:  39.0852°N, 75.6325°W
Report Text: KDOV 242058Z AUTO 29011KT 10SM CLR 20/08 A2982 RMK AO2 SLP101 T01950079 55002
Loading
Personal Weather Stations






























Interactive Weather Map
Tropical Storm Tracking
New forecast layout! Learn more

10-Day Weather Forecast

Advertisements
Track Severe Weather on mobile